createdAt,value
2022-11-13T00:04:21.382Z,21.50
2022-11-13T00:09:22.567Z,23.60
2022-11-13T00:14:23.665Z,20.60
2022-11-13T00:19:24.769Z,20.10
2022-11-13T00:24:26.917Z,25.10
2022-11-13T00:29:26.000Z,24.30
2022-11-13T00:34:46.421Z,20.60
2022-11-13T00:39:27.172Z,26.90
2022-11-13T00:44:29.280Z,22.40
2022-11-13T00:49:28.379Z,24.50
2022-11-13T00:54:30.502Z,22.60
2022-11-13T00:59:31.627Z,24.10
2022-11-13T01:04:30.743Z,26.00
2022-11-13T01:09:31.878Z,23.30
2022-11-13T01:14:32.978Z,20.70
2022-11-13T01:19:34.095Z,19.80
2022-11-13T01:24:35.192Z,19.20
2022-11-13T01:29:37.311Z,16.50
2022-11-13T01:34:37.418Z,17.60
2022-11-13T01:39:36.541Z,15.60
2022-11-13T01:44:38.661Z,16.60
2022-11-13T01:49:37.796Z,18.40
2022-11-13T01:54:39.911Z,18.50
2022-11-13T01:59:39.087Z,18.80
2022-11-13T02:04:40.264Z,19.90
2022-11-13T02:09:41.377Z,22.40
2022-11-13T02:14:42.509Z,22.50
2022-11-13T02:19:43.609Z,25.20
2022-11-13T02:24:47.915Z,22.60
2022-11-13T02:29:45.001Z,26.20
2022-11-13T02:34:47.102Z,21.30
2022-11-13T02:39:47.250Z,22.20
2022-11-13T02:44:46.361Z,22.00
2022-11-13T02:49:47.479Z,20.00
2022-11-13T02:54:48.627Z,18.10
2022-11-13T02:59:49.724Z,19.80
2022-11-13T03:05:11.366Z,22.10
2022-11-13T03:09:51.814Z,20.90
2022-11-13T03:14:52.905Z,26.40
2022-11-13T03:19:55.005Z,12.70
2022-11-13T03:24:55.115Z,10.90
2022-11-13T03:29:55.209Z,11.10
2022-11-13T03:34:54.333Z,12.00
2022-11-13T03:39:56.440Z,12.10
2022-11-13T03:44:55.546Z,13.50
2022-11-13T03:49:58.656Z,11.90
2022-11-13T03:54:57.769Z,10.50
2022-11-13T03:59:58.873Z,10.20
2022-11-13T04:04:59.958Z,8.80
2022-11-13T04:10:01.138Z,9.40
2022-11-13T04:15:02.250Z,10.30
2022-11-13T04:20:04.387Z,10.10
2022-11-13T04:25:03.465Z,8.70
2022-11-13T04:30:05.146Z,10.60
2022-11-13T04:35:04.312Z,10.90
2022-11-13T04:40:05.493Z,13.80
2022-11-13T04:45:06.581Z,12.00
2022-11-13T04:50:08.695Z,11.20
2022-11-13T04:55:07.788Z,11.20
2022-11-13T05:00:07.992Z,12.50
2022-11-13T05:05:09.200Z,11.20
2022-11-13T05:10:10.389Z,14.70
2022-11-13T05:15:12.470Z,15.00
2022-11-13T05:20:11.572Z,11.00
2022-11-13T05:25:12.689Z,11.60
2022-11-13T05:30:14.813Z,14.10
2022-11-13T05:35:13.935Z,12.20
2022-11-13T05:40:15.081Z,12.60
2022-11-13T05:45:16.216Z,11.50
2022-11-13T05:50:18.351Z,12.90
2022-11-13T05:55:20.049Z,11.90
2022-11-13T06:00:18.356Z,12.30
2022-11-13T06:05:17.464Z,11.60
2022-11-13T06:10:18.557Z,11.50
2022-11-13T06:15:19.658Z,11.20
2022-11-13T06:20:20.756Z,12.30
2022-11-13T06:25:21.863Z,11.50
2022-11-13T06:30:22.966Z,13.10
2022-11-13T06:35:24.074Z,11.30
2022-11-13T06:40:25.157Z,12.00
2022-11-13T06:45:26.249Z,11.60
2022-11-13T06:50:27.336Z,10.90
2022-11-13T06:55:28.434Z,9.40
2022-11-13T07:00:35.241Z,12.40
2022-11-13T07:05:30.494Z,10.60
2022-11-13T07:10:29.678Z,12.10
2022-11-13T07:15:30.783Z,12.90
2022-11-13T07:20:32.881Z,11.00
2022-11-13T07:25:31.978Z,11.40
2022-11-13T07:30:34.069Z,12.80
2022-11-13T07:35:33.174Z,10.70
2022-11-13T07:40:34.275Z,9.00
2022-11-13T07:45:34.435Z,8.90
2022-11-13T07:50:35.522Z,10.20
2022-11-13T07:55:36.621Z,9.60
2022-11-13T08:00:37.912Z,9.10
2022-11-13T08:05:39.032Z,10.70
2022-11-13T08:10:40.148Z,10.00
2022-11-13T08:15:41.352Z,10.20
2022-11-13T08:20:43.431Z,10.70
2022-11-13T08:25:42.531Z,10.60
2022-11-13T08:30:43.626Z,9.70
2022-11-13T08:35:44.728Z,9.70
2022-11-13T08:40:45.825Z,9.70
2022-11-13T08:45:47.945Z,9.00
2022-11-13T08:50:47.071Z,9.60
2022-11-13T08:55:48.162Z,10.00
2022-11-13T09:00:49.262Z,10.50
2022-11-13T09:05:50.657Z,8.40
2022-11-13T09:10:52.838Z,9.00
2022-11-13T09:15:53.161Z,9.10
2022-11-13T09:20:52.279Z,8.10
2022-11-13T09:25:53.482Z,11.20
2022-11-13T09:30:54.642Z,9.60
2022-11-13T09:35:56.762Z,9.70
2022-11-13T09:40:56.862Z,9.20
2022-11-13T09:45:57.002Z,9.60
2022-11-13T09:50:57.102Z,8.90
2022-11-13T09:55:56.282Z,9.20
2022-11-13T10:00:57.476Z,9.70
2022-11-13T10:05:58.686Z,9.60
2022-11-13T10:10:59.961Z,9.00
2022-11-13T10:16:01.107Z,9.40
2022-11-13T10:21:08.279Z,8.70
2022-11-13T10:26:04.323Z,9.20
2022-11-13T10:31:03.465Z,9.10
2022-11-13T10:36:04.718Z,10.30
2022-11-13T10:41:06.890Z,8.50
2022-11-13T10:46:06.025Z,12.60
2022-11-13T10:51:07.129Z,9.20
2022-11-13T10:56:08.264Z,7.90
2022-11-13T11:01:09.442Z,8.60
2022-11-13T11:06:10.660Z,8.30
2022-11-13T11:11:11.848Z,11.20
2022-11-13T11:16:12.984Z,9.50
2022-11-13T11:21:14.476Z,8.00
2022-11-13T11:26:13.604Z,8.80
2022-11-13T11:31:14.818Z,8.00
2022-11-13T11:36:15.995Z,8.00
2022-11-13T11:41:19.097Z,8.50
2022-11-13T11:46:18.535Z,10.50
2022-11-13T11:51:18.723Z,8.60
2022-11-13T11:56:17.931Z,8.00
2022-11-13T12:01:19.255Z,8.20
2022-11-13T12:06:21.405Z,8.10
2022-11-13T12:11:20.610Z,8.30
2022-11-13T12:16:25.020Z,7.40
2022-11-13T12:21:21.649Z,7.90
2022-11-13T12:26:22.803Z,6.10
2022-11-13T12:31:23.968Z,6.60
2022-11-13T12:36:25.125Z,7.10
2022-11-13T12:41:26.793Z,7.20
2022-11-13T12:46:25.885Z,6.60
2022-11-13T12:51:27.057Z,6.50
2022-11-13T12:56:28.216Z,23.00
2022-11-13T13:01:29.507Z,12.50
2022-11-13T13:06:30.720Z,6.10
2022-11-13T13:11:32.847Z,6.60
2022-11-13T13:16:33.978Z,6.40
2022-11-13T13:21:33.121Z,5.90
2022-11-13T13:26:34.330Z,5.60
2022-11-13T13:31:35.556Z,5.50
2022-11-13T13:36:37.678Z,5.60
2022-11-13T13:41:36.828Z,10.10
2022-11-13T13:46:38.025Z,6.70
2022-11-13T13:51:39.257Z,6.30
2022-11-13T13:56:40.389Z,5.60
2022-11-13T14:01:42.535Z,5.80
2022-11-13T14:06:41.759Z,5.90
2022-11-13T14:11:42.910Z,7.10
2022-11-13T14:16:44.050Z,7.00
2022-11-13T14:21:45.166Z,6.70
2022-11-13T14:26:47.253Z,8.50
2022-11-13T14:31:46.385Z,8.20
2022-11-13T14:36:47.466Z,7.80
2022-11-13T14:41:49.572Z,6.70
2022-11-13T14:46:48.703Z,8.00
2022-11-13T14:51:49.823Z,5.60
2022-11-13T14:56:51.574Z,5.40
2022-11-13T15:01:50.878Z,6.00
2022-11-13T15:06:52.091Z,6.20
2022-11-13T15:11:53.262Z,5.40
2022-11-13T15:16:55.357Z,6.30
2022-11-13T15:22:25.920Z,7.30
2022-11-13T15:26:54.529Z,5.50
2022-11-13T15:31:56.924Z,8.40
2022-11-13T15:36:57.503Z,10.20
2022-11-13T15:41:56.599Z,7.90
2022-11-13T15:46:57.678Z,6.90
2022-11-13T15:51:58.775Z,5.20
2022-11-13T15:56:59.878Z,6.70
2022-11-13T16:02:01.075Z,6.40
2022-11-13T16:07:02.462Z,8.80
2022-11-13T16:12:00.658Z,6.40
2022-11-13T16:17:02.797Z,6.30
2022-11-13T16:22:01.970Z,5.80
2022-11-13T16:27:04.076Z,6.00
2022-11-13T16:32:04.492Z,5.10
2022-11-13T16:37:03.701Z,5.60
2022-11-13T16:42:05.900Z,5.50
2022-11-13T16:47:05.110Z,5.50
2022-11-13T16:52:06.468Z,5.20
2022-11-13T16:57:09.791Z,4.70
2022-11-13T17:02:09.058Z,10.40
2022-11-13T17:07:11.101Z,5.60
2022-11-13T17:12:11.369Z,6.10
2022-11-13T17:17:11.968Z,6.00
2022-11-13T17:22:11.187Z,5.70
2022-11-13T17:27:12.540Z,17.20
2022-11-13T17:32:11.984Z,5.90
2022-11-13T17:37:14.372Z,5.50
2022-11-13T17:42:13.775Z,6.10
2022-11-13T17:47:15.196Z,7.10
2022-11-13T17:52:17.652Z,6.00
2022-11-13T17:57:17.041Z,6.10
2022-11-13T18:02:19.423Z,5.40
2022-11-13T18:07:18.969Z,7.60
2022-11-13T18:12:18.267Z,14.20
2022-11-13T18:17:20.794Z,7.10
2022-11-13T18:22:22.229Z,10.90
2022-11-13T18:27:22.660Z,6.20
2022-11-13T18:32:23.203Z,8.90
2022-11-13T18:37:22.416Z,6.50
2022-11-13T18:42:23.747Z,11.30
2022-11-13T18:47:26.166Z,7.50
2022-11-13T18:52:25.667Z,9.00
2022-11-13T18:57:26.088Z,10.30
2022-11-13T19:02:26.299Z,7.80
2022-11-13T19:07:25.770Z,10.80
2022-11-13T19:12:26.298Z,8.30
2022-11-13T19:17:25.741Z,7.90
2022-11-13T19:22:26.997Z,24.90
2022-11-13T19:27:28.493Z,8.90
2022-11-13T19:32:28.925Z,9.70
2022-11-13T19:37:29.197Z,13.90
2022-11-13T19:42:28.629Z,26.00
2022-11-13T19:47:30.063Z,10.40
2022-11-13T19:52:32.459Z,8.60
2022-11-13T19:57:34.567Z,15.30
2022-11-13T20:02:33.038Z,8.30
2022-11-13T20:07:32.505Z,7.60
2022-11-13T20:12:32.306Z,7.50
2022-11-13T20:17:31.847Z,7.90
2022-11-13T20:22:32.311Z,9.20
2022-11-13T20:27:33.063Z,11.90
2022-11-13T20:32:31.981Z,10.30
2022-11-13T20:37:33.393Z,8.90
2022-11-13T20:42:34.862Z,10.80
2022-11-13T20:47:36.239Z,11.30
2022-11-13T20:52:37.418Z,8.60
2022-11-13T20:57:41.118Z,8.70
2022-11-13T21:02:38.599Z,17.90
2022-11-13T21:07:40.812Z,8.90
2022-11-13T21:12:39.977Z,8.20
2022-11-13T21:17:42.305Z,8.80
2022-11-13T21:22:41.701Z,9.20
2022-11-13T21:27:43.072Z,9.60
2022-11-13T21:32:44.190Z,13.90
2022-11-13T21:37:45.313Z,9.90
2022-11-13T21:42:46.456Z,10.30
2022-11-13T21:47:47.559Z,9.10
2022-11-13T21:52:48.707Z,9.40
2022-11-13T21:57:49.787Z,8.40
2022-11-13T22:02:51.885Z,8.80
2022-11-13T22:07:52.023Z,8.90
2022-11-13T22:12:51.111Z,8.30
2022-11-13T22:17:52.273Z,8.10
2022-11-13T22:22:54.396Z,7.80
2022-11-13T22:27:54.486Z,9.70
2022-11-13T22:32:53.951Z,8.80
2022-11-13T22:37:53.052Z,8.80
2022-11-13T22:42:55.148Z,9.60
2022-11-13T22:47:54.276Z,8.90
2022-11-13T22:52:56.465Z,9.70
2022-11-13T22:57:55.559Z,9.10
2022-11-13T23:02:57.700Z,9.30
2022-11-13T23:07:57.786Z,12.80
2022-11-13T23:12:57.893Z,13.30
2022-11-13T23:17:57.977Z,9.70
2022-11-13T23:22:57.069Z,9.70
2022-11-13T23:27:58.257Z,12.10
2022-11-13T23:32:59.371Z,8.90
2022-11-13T23:38:00.473Z,9.80
2022-11-13T23:43:01.562Z,8.90
2022-11-13T23:48:03.692Z,10.00
2022-11-13T23:53:02.795Z,9.20
2022-11-13T23:58:03.910Z,9.20
